Industrial, Mississippi
Current Conditions -  °F | °C
As of 10:53 AM on Friday 21 Nov 2014 (Local Time) from KASD Reporting Station
Clear Clear  
Wind Chill: 68°   Ceiling: Unl
Heat Index: 68°   Visibility: 10mi
Dew Point: 50°   Wind: 12mph
Humidity: 52%   Direction: 130°SE
Pressure: 30.31"   Gusts: NA
Location:  30.5854°N, 89.6932°W
Report Text: KASD 211653Z AUTO 13010KT 10SM CLR 20/10 A3031 RMK AO2 SLP263 T02000100
Loading
Personal Weather Stations






























Interactive Weather Map New forecast layout! Learn more

10-Day Weather Forecast

Advertisements
Track Severe Weather on mobile